sensor_id;sensor_type;location;lat;lon;timestamp;temperature;humidity
71627;DHT22;59475;52.464;13.590;2022-10-26T00:00:39;6.63;96.44
71627;DHT22;59475;52.464;13.590;2022-10-26T00:03:04;6.56;96.24
71627;DHT22;59475;52.464;13.590;2022-10-26T00:05:32;6.49;96.04
71627;DHT22;59475;52.464;13.590;2022-10-26T00:07:57;6.48;96.09
71627;DHT22;59475;52.464;13.590;2022-10-26T00:10:23;6.47;96.36
71627;DHT22;59475;52.464;13.590;2022-10-26T00:12:49;6.52;96.62
71627;DHT22;59475;52.464;13.590;2022-10-26T00:15:15;6.49;96.52
71627;DHT22;59475;52.464;13.590;2022-10-26T00:17:41;6.49;96.44
71627;DHT22;59475;52.464;13.590;2022-10-26T00:20:06;6.47;96.40
71627;DHT22;59475;52.464;13.590;2022-10-26T00:22:32;6.45;96.67
71627;DHT22;59475;52.464;13.590;2022-10-26T00:24:57;6.44;96.51
71627;DHT22;59475;52.464;13.590;2022-10-26T00:27:22;6.42;96.44
71627;DHT22;59475;52.464;13.590;2022-10-26T00:29:48;6.41;96.46
71627;DHT22;59475;52.464;13.590;2022-10-26T00:32:13;6.38;96.29
71627;DHT22;59475;52.464;13.590;2022-10-26T00:34:38;6.34;96.13
71627;DHT22;59475;52.464;13.590;2022-10-26T00:37:04;6.34;96.22
71627;DHT22;59475;52.464;13.590;2022-10-26T00:39:29;6.31;96.11
71627;DHT22;59475;52.464;13.590;2022-10-26T00:41:54;6.28;96.10
71627;DHT22;59475;52.464;13.590;2022-10-26T00:44:54;6.28;96.27
71627;DHT22;59475;52.464;13.590;2022-10-26T00:47:39;6.24;96.08
71627;DHT22;59475;52.464;13.590;2022-10-26T00:50:21;6.20;96.55
71627;DHT22;59475;52.464;13.590;2022-10-26T00:52:49;6.20;96.76
71627;DHT22;59475;52.464;13.590;2022-10-26T00:55:17;6.20;96.62
71627;DHT22;59475;52.464;13.590;2022-10-26T00:57:46;6.18;96.53
71627;DHT22;59475;52.464;13.590;2022-10-26T01:00:12;6.23;96.48
71627;DHT22;59475;52.464;13.590;2022-10-26T01:02:38;6.21;96.17
71627;DHT22;59475;52.464;13.590;2022-10-26T01:05:04;6.11;95.78
71627;DHT22;59475;52.464;13.590;2022-10-26T01:07:30;6.10;95.91
71627;DHT22;59475;52.464;13.590;2022-10-26T01:09:56;6.10;96.56
71627;DHT22;59475;52.464;13.590;2022-10-26T01:12:21;6.11;96.66
71627;DHT22;59475;52.464;13.590;2022-10-26T01:14:47;6.09;96.67
71627;DHT22;59475;52.464;13.590;2022-10-26T01:31:04;5.99;95.92
71627;DHT22;59475;52.464;13.590;2022-10-26T01:33:37;5.95;95.89
71627;DHT22;59475;52.464;13.590;2022-10-26T01:36:17;5.89;95.78
71627;DHT22;59475;52.464;13.590;2022-10-26T01:39:04;5.88;95.85
71627;DHT22;59475;52.464;13.590;2022-10-26T01:41:34;5.88;95.86
71627;DHT22;59475;52.464;13.590;2022-10-26T01:46:30;5.85;96.00
71627;DHT22;59475;52.464;13.590;2022-10-26T01:49:01;5.80;96.31
71627;DHT22;59475;52.464;13.590;2022-10-26T01:51:30;5.82;96.45
71627;DHT22;59475;52.464;13.590;2022-10-26T01:53:57;5.80;96.40
71627;DHT22;59475;52.464;13.590;2022-10-26T01:56:25;5.79;96.53
71627;DHT22;59475;52.464;13.590;2022-10-26T01:59:02;5.78;96.62
71627;DHT22;59475;52.464;13.590;2022-10-26T02:07:17;5.78;96.24
71627;DHT22;59475;52.464;13.590;2022-10-26T02:15:20;5.63;95.94
71627;DHT22;59475;52.464;13.590;2022-10-26T02:20:25;5.66;96.13
71627;DHT22;59475;52.464;13.590;2022-10-26T02:22:51;5.65;96.10
71627;DHT22;59475;52.464;13.590;2022-10-26T02:25:22;5.63;96.21
71627;DHT22;59475;52.464;13.590;2022-10-26T02:27:54;5.62;96.39
71627;DHT22;59475;52.464;13.590;2022-10-26T02:30:20;5.61;96.40
71627;DHT22;59475;52.464;13.590;2022-10-26T02:32:50;5.59;96.43
71627;DHT22;59475;52.464;13.590;2022-10-26T02:35:20;5.56;96.47
71627;DHT22;59475;52.464;13.590;2022-10-26T02:37:47;5.58;96.40
71627;DHT22;59475;52.464;13.590;2022-10-26T02:40:15;5.51;96.18
71627;DHT22;59475;52.464;13.590;2022-10-26T02:42:44;5.52;96.26
71627;DHT22;59475;52.464;13.590;2022-10-26T02:45:13;5.50;96.23
71627;DHT22;59475;52.464;13.590;2022-10-26T02:47:40;5.48;96.34
71627;DHT22;59475;52.464;13.590;2022-10-26T02:50:06;5.47;96.30
71627;DHT22;59475;52.464;13.590;2022-10-26T02:52:50;5.42;96.27
71627;DHT22;59475;52.464;13.590;2022-10-26T02:55:26;5.45;96.34
71627;DHT22;59475;52.464;13.590;2022-10-26T02:57:57;5.45;96.11
71627;DHT22;59475;52.464;13.590;2022-10-26T03:00:23;5.47;95.91
71627;DHT22;59475;52.464;13.590;2022-10-26T03:02:54;5.47;95.70
71627;DHT22;59475;52.464;13.590;2022-10-26T03:05:24;5.47;95.54
71627;DHT22;59475;52.464;13.590;2022-10-26T03:07:50;5.45;95.33
71627;DHT22;59475;52.464;13.590;2022-10-26T03:10:16;5.47;95.64
71627;DHT22;59475;52.464;13.590;2022-10-26T03:12:41;5.45;96.09
71627;DHT22;59475;52.464;13.590;2022-10-26T03:15:07;5.41;95.97
71627;DHT22;59475;52.464;13.590;2022-10-26T03:17:32;5.41;95.91
71627;DHT22;59475;52.464;13.590;2022-10-26T03:19:57;5.38;95.87
71627;DHT22;59475;52.464;13.590;2022-10-26T03:22:23;5.37;96.13
71627;DHT22;59475;52.464;13.590;2022-10-26T03:24:48;5.38;96.32
71627;DHT22;59475;52.464;13.590;2022-10-26T03:27:14;5.37;96.14
71627;DHT22;59475;52.464;13.590;2022-10-26T03:29:39;5.33;96.35
71627;DHT22;59475;52.464;13.590;2022-10-26T03:32:05;5.31;96.60
71627;DHT22;59475;52.464;13.590;2022-10-26T03:34:30;5.28;96.39
71627;DHT22;59475;52.464;13.590;2022-10-26T03:36:55;5.27;96.30
71627;DHT22;59475;52.464;13.590;2022-10-26T03:39:21;5.27;96.19
71627;DHT22;59475;52.464;13.590;2022-10-26T03:41:46;5.28;96.20
71627;DHT22;59475;52.464;13.590;2022-10-26T03:44:12;5.27;96.38
71627;DHT22;59475;52.464;13.590;2022-10-26T03:46:37;5.27;96.21
71627;DHT22;59475;52.464;13.590;2022-10-26T03:49:03;5.24;96.05
71627;DHT22;59475;52.464;13.590;2022-10-26T03:51:28;5.23;96.58
71627;DHT22;59475;52.464;13.590;2022-10-26T03:53:53;5.24;96.86
71627;DHT22;59475;52.464;13.590;2022-10-26T03:56:19;5.26;96.79
71627;DHT22;59475;52.464;13.590;2022-10-26T03:58:44;5.24;96.86
71627;DHT22;59475;52.464;13.590;2022-10-26T04:01:09;5.23;96.90
71627;DHT22;59475;52.464;13.590;2022-10-26T04:03:35;5.24;96.86
71627;DHT22;59475;52.464;13.590;2022-10-26T04:06:01;5.26;96.78
71627;DHT22;59475;52.464;13.590;2022-10-26T04:08:26;5.28;96.86
71627;DHT22;59475;52.464;13.590;2022-10-26T04:10:52;5.28;97.04
71627;DHT22;59475;52.464;13.590;2022-10-26T04:13:17;5.31;97.03
71627;DHT22;59475;52.464;13.590;2022-10-26T04:15:42;5.33;97.03
71627;DHT22;59475;52.464;13.590;2022-10-26T04:18:08;5.31;96.93
71627;DHT22;59475;52.464;13.590;2022-10-26T04:20:37;5.31;97.08
71627;DHT22;59475;52.464;13.590;2022-10-26T04:23:10;5.34;96.99
71627;DHT22;59475;52.464;13.590;2022-10-26T04:25:35;5.38;97.10
71627;DHT22;59475;52.464;13.590;2022-10-26T04:28:02;5.41;97.16
71627;DHT22;59475;52.464;13.590;2022-10-26T04:30:28;5.48;97.19
71627;DHT22;59475;52.464;13.590;2022-10-26T04:32:54;5.52;97.13
71627;DHT22;59475;52.464;13.590;2022-10-26T04:35:19;5.59;97.06
71627;DHT22;59475;52.464;13.590;2022-10-26T04:37:44;5.63;97.49
71627;DHT22;59475;52.464;13.590;2022-10-26T04:40:10;5.68;97.52
71627;DHT22;59475;52.464;13.590;2022-10-26T04:42:42;5.69;97.71
71627;DHT22;59475;52.464;13.590;2022-10-26T04:45:08;5.72;97.90
71627;DHT22;59475;52.464;13.590;2022-10-26T04:47:34;5.76;98.02
71627;DHT22;59475;52.464;13.590;2022-10-26T04:50:00;5.80;98.20
71627;DHT22;59475;52.464;13.590;2022-10-26T04:52:25;5.86;98.29
71627;DHT22;59475;52.464;13.590;2022-10-26T04:54:50;5.93;98.34
71627;DHT22;59475;52.464;13.590;2022-10-26T04:57:16;5.95;98.46
71627;DHT22;59475;52.464;13.590;2022-10-26T04:59:41;5.98;98.45
71627;DHT22;59475;52.464;13.590;2022-10-26T05:02:06;5.96;98.35
71627;DHT22;59475;52.464;13.590;2022-10-26T05:04:31;5.93;98.44
71627;DHT22;59475;52.464;13.590;2022-10-26T05:06:57;5.98;98.55
71627;DHT22;59475;52.464;13.590;2022-10-26T05:09:22;6.00;98.62
71627;DHT22;59475;52.464;13.590;2022-10-26T05:11:47;6.03;98.72
71627;DHT22;59475;52.464;13.590;2022-10-26T05:14:13;6.03;98.69
71627;DHT22;59475;52.464;13.590;2022-10-26T05:16:38;5.99;98.66
71627;DHT22;59475;52.464;13.590;2022-10-26T05:19:03;5.92;98.52
71627;DHT22;59475;52.464;13.590;2022-10-26T05:21:29;5.90;98.67
71627;DHT22;59475;52.464;13.590;2022-10-26T05:23:55;5.90;98.73
71627;DHT22;59475;52.464;13.590;2022-10-26T05:26:23;5.93;98.85
71627;DHT22;59475;52.464;13.590;2022-10-26T05:28:50;5.99;98.93
71627;DHT22;59475;52.464;13.590;2022-10-26T05:31:15;6.03;99.02
71627;DHT22;59475;52.464;13.590;2022-10-26T05:33:41;6.10;99.01
71627;DHT22;59475;52.464;13.590;2022-10-26T05:36:06;6.09;98.94
71627;DHT22;59475;52.464;13.590;2022-10-26T05:38:32;6.10;98.95
71627;DHT22;59475;52.464;13.590;2022-10-26T05:40:57;6.06;98.67
71627;DHT22;59475;52.464;13.590;2022-10-26T05:43:23;6.06;98.73
71627;DHT22;59475;52.464;13.590;2022-10-26T05:45:49;6.03;98.77
71627;DHT22;59475;52.464;13.590;2022-10-26T05:48:15;6.06;98.77
71627;DHT22;59475;52.464;13.590;2022-10-26T05:50:40;5.99;98.66
71627;DHT22;59475;52.464;13.590;2022-10-26T05:53:05;5.95;98.58
71627;DHT22;59475;52.464;13.590;2022-10-26T05:55:31;5.89;98.68
71627;DHT22;59475;52.464;13.590;2022-10-26T05:57:57;5.89;98.72
71627;DHT22;59475;52.464;13.590;2022-10-26T06:00:24;5.90;98.73
71627;DHT22;59475;52.464;13.590;2022-10-26T06:05:54;5.86;98.73
71627;DHT22;59475;52.464;13.590;2022-10-26T06:08:22;5.82;98.87
71627;DHT22;59475;52.464;13.590;2022-10-26T06:10:48;5.86;98.99
71627;DHT22;59475;52.464;13.590;2022-10-26T06:13:14;5.83;98.99
71627;DHT22;59475;52.464;13.590;2022-10-26T06:23:52;5.90;99.19
71627;DHT22;59475;52.464;13.590;2022-10-26T06:27:02;5.96;99.25
71627;DHT22;59475;52.464;13.590;2022-10-26T06:29:54;6.05;99.24
71627;DHT22;59475;52.464;13.590;2022-10-26T06:32:21;6.05;99.05
71627;DHT22;59475;52.464;13.590;2022-10-26T06:34:49;6.05;98.95
71627;DHT22;59475;52.464;13.590;2022-10-26T06:37:16;6.07;99.03
71627;DHT22;59475;52.464;13.590;2022-10-26T06:39:46;6.11;98.94
71627;DHT22;59475;52.464;13.590;2022-10-26T06:42:13;6.14;98.90
71627;DHT22;59475;52.464;13.590;2022-10-26T06:44:39;6.16;98.84
71627;DHT22;59475;52.464;13.590;2022-10-26T06:47:23;6.20;98.83
71627;DHT22;59475;52.464;13.590;2022-10-26T06:50:02;6.24;98.84
71627;DHT22;59475;52.464;13.590;2022-10-26T06:52:39;6.27;98.62
71627;DHT22;59475;52.464;13.590;2022-10-26T06:55:13;6.30;98.71
71627;DHT22;59475;52.464;13.590;2022-10-26T06:57:39;6.33;98.88
71627;DHT22;59475;52.464;13.590;2022-10-26T07:00:20;6.42;98.94
71627;DHT22;59475;52.464;13.590;2022-10-26T07:02:45;6.54;99.00
71627;DHT22;59475;52.464;13.590;2022-10-26T07:05:12;6.63;99.05
71627;DHT22;59475;52.464;13.590;2022-10-26T07:07:42;6.72;98.93
71627;DHT22;59475;52.464;13.590;2022-10-26T07:10:08;6.82;98.97
71627;DHT22;59475;52.464;13.590;2022-10-26T07:12:35;6.92;99.16
71627;DHT22;59475;52.464;13.590;2022-10-26T07:15:00;7.07;99.16
71627;DHT22;59475;52.464;13.590;2022-10-26T07:17:25;7.20;99.21
71627;DHT22;59475;52.464;13.590;2022-10-26T07:19:53;7.31;99.13
71627;DHT22;59475;52.464;13.590;2022-10-26T07:22:18;7.43;99.16
71627;DHT22;59475;52.464;13.590;2022-10-26T07:24:43;7.58;99.21
71627;DHT22;59475;52.464;13.590;2022-10-26T07:27:09;7.65;99.08
71627;DHT22;59475;52.464;13.590;2022-10-26T07:29:34;7.76;98.98
71627;DHT22;59475;52.464;13.590;2022-10-26T07:31:59;7.79;98.75
71627;DHT22;59475;52.464;13.590;2022-10-26T07:34:25;7.88;98.53
71627;DHT22;59475;52.464;13.590;2022-10-26T07:36:50;7.92;98.47
71627;DHT22;59475;52.464;13.590;2022-10-26T07:39:16;7.99;98.63
71627;DHT22;59475;52.464;13.590;2022-10-26T07:41:41;8.09;98.63
71627;DHT22;59475;52.464;13.590;2022-10-26T07:44:06;8.13;98.71
71627;DHT22;59475;52.464;13.590;2022-10-26T07:46:32;8.23;98.77
71627;DHT22;59475;52.464;13.590;2022-10-26T07:48:57;8.32;98.84
71627;DHT22;59475;52.464;13.590;2022-10-26T07:51:22;8.40;98.84
71627;DHT22;59475;52.464;13.590;2022-10-26T07:53:48;8.51;98.86
71627;DHT22;59475;52.464;13.590;2022-10-26T07:56:13;8.60;98.85
71627;DHT22;59475;52.464;13.590;2022-10-26T07:58:39;8.72;98.92
71627;DHT22;59475;52.464;13.590;2022-10-26T08:01:11;8.81;98.91
71627;DHT22;59475;52.464;13.590;2022-10-26T08:03:37;8.89;99.05
71627;DHT22;59475;52.464;13.590;2022-10-26T08:06:03;9.02;99.05
71627;DHT22;59475;52.464;13.590;2022-10-26T08:08:30;9.12;98.99
71627;DHT22;59475;52.464;13.590;2022-10-26T08:10:55;9.22;98.80
71627;DHT22;59475;52.464;13.590;2022-10-26T08:13:21;9.29;98.81
71627;DHT22;59475;52.464;13.590;2022-10-26T08:15:46;9.37;98.74
71627;DHT22;59475;52.464;13.590;2022-10-26T08:18:12;9.47;98.53
71627;DHT22;59475;52.464;13.590;2022-10-26T08:20:37;9.54;98.33
71627;DHT22;59475;52.464;13.590;2022-10-26T08:23:02;9.65;98.46
71627;DHT22;59475;52.464;13.590;2022-10-26T08:25:31;9.74;98.53
71627;DHT22;59475;52.464;13.590;2022-10-26T08:28:00;9.89;98.08
71627;DHT22;59475;52.464;13.590;2022-10-26T08:30:26;10.09;98.63
71627;DHT22;59475;52.464;13.590;2022-10-26T08:32:57;10.36;99.35
71627;DHT22;59475;52.464;13.590;2022-10-26T08:35:23;10.51;98.66
71627;DHT22;59475;52.464;13.590;2022-10-26T08:37:48;10.61;97.08
71627;DHT22;59475;52.464;13.590;2022-10-26T08:40:15;10.77;96.88
71627;DHT22;59475;52.464;13.590;2022-10-26T08:42:48;11.20;99.22
71627;DHT22;59475;52.464;13.590;2022-10-26T08:45:24;11.51;97.57
71627;DHT22;59475;52.464;13.590;2022-10-26T08:47:54;11.75;96.22
71627;DHT22;59475;52.464;13.590;2022-10-26T08:50:27;11.95;94.58
71627;DHT22;59475;52.464;13.590;2022-10-26T08:53:11;12.18;94.18
71627;DHT22;59475;52.464;13.590;2022-10-26T08:55:49;12.49;93.54
71627;DHT22;59475;52.464;13.590;2022-10-26T08:58:19;12.76;94.61
71627;DHT22;59475;52.464;13.590;2022-10-26T09:00:47;13.19;96.56
71627;DHT22;59475;52.464;13.590;2022-10-26T09:03:15;13.47;93.30
71627;DHT22;59475;52.464;13.590;2022-10-26T09:06:08;13.69;90.84
71627;DHT22;59475;52.464;13.590;2022-10-26T09:08:58;14.20;94.65
71627;DHT22;59475;52.464;13.590;2022-10-26T09:11:54;14.53;89.42
71627;DHT22;59475;52.464;13.590;2022-10-26T09:17:54;15.17;91.25
71627;DHT22;59475;52.464;13.590;2022-10-26T09:20:43;15.30;86.17
71627;DHT22;59475;52.464;13.590;2022-10-26T09:26:01;16.18;88.89
71627;DHT22;59475;52.464;13.590;2022-10-26T09:28:33;16.20;82.80
71627;DHT22;59475;52.464;13.590;2022-10-26T09:31:02;16.40;90.28
71627;DHT22;59475;52.464;13.590;2022-10-26T09:33:33;16.59;81.44
71627;DHT22;59475;52.464;13.590;2022-10-26T09:36:12;16.64;81.82
71627;DHT22;59475;52.464;13.590;2022-10-26T09:39:03;16.83;83.45
71627;DHT22;59475;52.464;13.590;2022-10-26T09:41:39;16.83;82.57
71627;DHT22;59475;52.464;13.590;2022-10-26T09:44:42;16.52;77.70
71627;DHT22;59475;52.464;13.590;2022-10-26T09:49:46;16.32;79.29
71627;DHT22;59475;52.464;13.590;2022-10-26T09:52:14;16.37;78.85
71627;DHT22;59475;52.464;13.590;2022-10-26T09:54:40;16.59;81.42
71627;DHT22;59475;52.464;13.590;2022-10-26T09:57:06;16.89;79.47
71627;DHT22;59475;52.464;13.590;2022-10-26T09:59:35;17.06;79.19
71627;DHT22;59475;52.464;13.590;2022-10-26T10:02:35;17.24;76.23
71627;DHT22;59475;52.464;13.590;2022-10-26T10:05:01;17.45;74.34
71627;DHT22;59475;52.464;13.590;2022-10-26T10:07:27;17.48;74.91
71627;DHT22;59475;52.464;13.590;2022-10-26T10:10:13;17.57;73.71
71627;DHT22;59475;52.464;13.590;2022-10-26T10:12:39;17.61;73.00
71627;DHT22;59475;52.464;13.590;2022-10-26T10:15:20;17.55;72.10
71627;DHT22;59475;52.464;13.590;2022-10-26T10:17:53;17.42;73.00
71627;DHT22;59475;52.464;13.590;2022-10-26T10:20:30;17.69;72.97
71627;DHT22;59475;52.464;13.590;2022-10-26T10:23:01;17.95;72.21
71627;DHT22;59475;52.464;13.590;2022-10-26T10:25:37;17.96;71.70
71627;DHT22;59475;52.464;13.590;2022-10-26T10:28:22;17.86;71.26
71627;DHT22;59475;52.464;13.590;2022-10-26T10:31:00;17.93;71.64
71627;DHT22;59475;52.464;13.590;2022-10-26T10:33:34;18.12;72.35
71627;DHT22;59475;52.464;13.590;2022-10-26T10:36:00;18.40;70.68
71627;DHT22;59475;52.464;13.590;2022-10-26T10:38:26;18.27;69.77
71627;DHT22;59475;52.464;13.590;2022-10-26T10:40:56;18.18;70.57
71627;DHT22;59475;52.464;13.590;2022-10-26T10:43:24;18.13;70.09
71627;DHT22;59475;52.464;13.590;2022-10-26T10:45:52;18.02;70.14
71627;DHT22;59475;52.464;13.590;2022-10-26T10:48:22;18.16;71.21
71627;DHT22;59475;52.464;13.590;2022-10-26T10:51:00;18.31;69.73
71627;DHT22;59475;52.464;13.590;2022-10-26T10:53:36;18.58;69.55
71627;DHT22;59475;52.464;13.590;2022-10-26T10:56:26;18.55;68.13
71627;DHT22;59475;52.464;13.590;2022-10-26T10:59:18;18.55;68.97
71627;DHT22;59475;52.464;13.590;2022-10-26T11:06:53;18.54;68.82
71627;DHT22;59475;52.464;13.590;2022-10-26T11:09:25;18.47;68.80
71627;DHT22;59475;52.464;13.590;2022-10-26T11:11:53;18.58;67.94
71627;DHT22;59475;52.464;13.590;2022-10-26T11:14:24;18.68;67.93
71627;DHT22;59475;52.464;13.590;2022-10-26T11:17:06;18.84;67.44
71627;DHT22;59475;52.464;13.590;2022-10-26T11:19:43;18.79;65.72
71627;DHT22;59475;52.464;13.590;2022-10-26T11:22:13;18.84;65.96
71627;DHT22;59475;52.464;13.590;2022-10-26T11:24:44;18.84;66.44
71627;DHT22;59475;52.464;13.590;2022-10-26T11:32:22;18.98;66.25
71627;DHT22;59475;52.464;13.590;2022-10-26T11:37:31;18.98;66.39
71627;DHT22;59475;52.464;13.590;2022-10-26T11:40:17;18.89;66.51
71627;DHT22;59475;52.464;13.590;2022-10-26T11:45:41;18.78;66.78
71627;DHT22;59475;52.464;13.590;2022-10-26T11:48:18;18.72;66.86
71627;DHT22;59475;52.464;13.590;2022-10-26T11:50:49;18.73;67.24
71627;DHT22;59475;52.464;13.590;2022-10-26T11:53:40;18.65;66.76
71627;DHT22;59475;52.464;13.590;2022-10-26T11:56:26;18.55;67.13
71627;DHT22;59475;52.464;13.590;2022-10-26T11:58:55;18.36;68.18
71627;DHT22;59475;52.464;13.590;2022-10-26T12:01:21;18.38;68.06
71627;DHT22;59475;52.464;13.590;2022-10-26T12:03:48;18.43;68.00
71627;DHT22;59475;52.464;13.590;2022-10-26T12:06:18;18.51;68.69
71627;DHT22;59475;52.464;13.590;2022-10-26T12:08:58;18.57;67.97
71627;DHT22;59475;52.464;13.590;2022-10-26T12:13:58;18.54;67.68
71627;DHT22;59475;52.464;13.590;2022-10-26T12:19:20;18.36;67.97
71627;DHT22;59475;52.464;13.590;2022-10-26T12:21:49;18.36;67.96
71627;DHT22;59475;52.464;13.590;2022-10-26T12:27:03;18.31;67.26
71627;DHT22;59475;52.464;13.590;2022-10-26T12:29:38;18.30;68.01
71627;DHT22;59475;52.464;13.590;2022-10-26T12:34:58;18.36;67.37
71627;DHT22;59475;52.464;13.590;2022-10-26T12:37:35;18.30;67.13
71627;DHT22;59475;52.464;13.590;2022-10-26T12:45:44;18.22;67.81
71627;DHT22;59475;52.464;13.590;2022-10-26T12:48:24;18.20;67.72
71627;DHT22;59475;52.464;13.590;2022-10-26T12:56:34;18.17;69.00
71627;DHT22;59475;52.464;13.590;2022-10-26T13:07:39;18.20;68.84
71627;DHT22;59475;52.464;13.590;2022-10-26T13:10:17;18.26;67.57
71627;DHT22;59475;52.464;13.590;2022-10-26T13:12:57;18.18;68.07
71627;DHT22;59475;52.464;13.590;2022-10-26T13:15:27;18.20;67.62
71627;DHT22;59475;52.464;13.590;2022-10-26T13:17:57;18.20;67.51
71627;DHT22;59475;52.464;13.590;2022-10-26T13:20:24;18.17;67.81
71627;DHT22;59475;52.464;13.590;2022-10-26T13:22:49;18.12;68.22
71627;DHT22;59475;52.464;13.590;2022-10-26T13:25:26;18.18;68.07
71627;DHT22;59475;52.464;13.590;2022-10-26T13:28:08;18.12;68.33
71627;DHT22;59475;52.464;13.590;2022-10-26T13:30:51;18.10;68.11
71627;DHT22;59475;52.464;13.590;2022-10-26T13:33:19;18.09;68.38
71627;DHT22;59475;52.464;13.590;2022-10-26T13:35:46;18.07;68.28
71627;DHT22;59475;52.464;13.590;2022-10-26T13:38:18;18.03;68.73
71627;DHT22;59475;52.464;13.590;2022-10-26T13:40:44;18.07;68.39
71627;DHT22;59475;52.464;13.590;2022-10-26T13:43:15;18.04;68.87
71627;DHT22;59475;52.464;13.590;2022-10-26T13:45:58;18.00;68.44
71627;DHT22;59475;52.464;13.590;2022-10-26T13:48:39;18.02;68.75
71627;DHT22;59475;52.464;13.590;2022-10-26T13:51:21;17.99;68.74
71627;DHT22;59475;52.464;13.590;2022-10-26T13:53:56;18.03;68.89
71627;DHT22;59475;52.464;13.590;2022-10-26T13:56:30;17.99;69.07
71627;DHT22;59475;52.464;13.590;2022-10-26T13:59:00;17.99;69.72
71627;DHT22;59475;52.464;13.590;2022-10-26T14:01:27;18.00;69.35
71627;DHT22;59475;52.464;13.590;2022-10-26T14:03:53;17.99;69.10
71627;DHT22;59475;52.464;13.590;2022-10-26T14:08:51;17.95;70.58
71627;DHT22;59475;52.464;13.590;2022-10-26T14:11:20;17.97;69.53
71627;DHT22;59475;52.464;13.590;2022-10-26T14:13:48;17.96;69.34
71627;DHT22;59475;52.464;13.590;2022-10-26T14:16:16;17.95;68.88
71627;DHT22;59475;52.464;13.590;2022-10-26T14:18:46;17.93;69.88
71627;DHT22;59475;52.464;13.590;2022-10-26T14:21:15;17.90;69.83
71627;DHT22;59475;52.464;13.590;2022-10-26T14:26:26;17.86;69.81
71627;DHT22;59475;52.464;13.590;2022-10-26T14:28:56;17.79;69.90
71627;DHT22;59475;52.464;13.590;2022-10-26T14:31:30;17.75;70.79
71627;DHT22;59475;52.464;13.590;2022-10-26T14:33:57;17.68;71.08
71627;DHT22;59475;52.464;13.590;2022-10-26T14:36:32;17.66;71.59
71627;DHT22;59475;52.464;13.590;2022-10-26T14:39:06;17.58;71.45
71627;DHT22;59475;52.464;13.590;2022-10-26T14:41:35;17.49;71.80
71627;DHT22;59475;52.464;13.590;2022-10-26T14:44:01;17.45;72.44
71627;DHT22;59475;52.464;13.590;2022-10-26T14:46:32;17.40;72.82
71627;DHT22;59475;52.464;13.590;2022-10-26T14:48:59;17.34;72.90
71627;DHT22;59475;52.464;13.590;2022-10-26T14:51:30;17.27;72.98
71627;DHT22;59475;52.464;13.590;2022-10-26T14:53:59;17.19;73.36
71627;DHT22;59475;52.464;13.590;2022-10-26T14:56:37;17.09;74.14
71627;DHT22;59475;52.464;13.590;2022-10-26T14:59:27;16.96;74.36
71627;DHT22;59475;52.464;13.590;2022-10-26T15:02:02;16.86;74.75
71627;DHT22;59475;52.464;13.590;2022-10-26T15:04:31;16.71;75.60
71627;DHT22;59475;52.464;13.590;2022-10-26T15:07:06;16.54;76.11
71627;DHT22;59475;52.464;13.590;2022-10-26T15:09:46;16.37;76.95
71627;DHT22;59475;52.464;13.590;2022-10-26T15:14:43;16.06;78.70
71627;DHT22;59475;52.464;13.590;2022-10-26T15:17:19;15.91;79.26
71627;DHT22;59475;52.464;13.590;2022-10-26T15:19:46;15.78;79.18
71627;DHT22;59475;52.464;13.590;2022-10-26T15:22:21;15.67;79.85
71627;DHT22;59475;52.464;13.590;2022-10-26T15:24:50;15.52;80.04
71627;DHT22;59475;52.464;13.590;2022-10-26T15:27:17;15.39;80.59
71627;DHT22;59475;52.464;13.590;2022-10-26T15:29:45;15.28;80.84
71627;DHT22;59475;52.464;13.590;2022-10-26T15:32:23;15.15;81.18
71627;DHT22;59475;52.464;13.590;2022-10-26T15:37:40;14.90;82.46
71627;DHT22;59475;52.464;13.590;2022-10-26T15:40:06;14.76;83.37
71627;DHT22;59475;52.464;13.590;2022-10-26T15:42:31;14.68;83.63
71627;DHT22;59475;52.464;13.590;2022-10-26T15:44:59;14.58;83.76
71627;DHT22;59475;52.464;13.590;2022-10-26T15:47:29;14.52;84.12
71627;DHT22;59475;52.464;13.590;2022-10-26T15:49:56;14.45;84.29
71627;DHT22;59475;52.464;13.590;2022-10-26T15:52:21;14.41;84.85
71627;DHT22;59475;52.464;13.590;2022-10-26T15:54:46;14.35;85.47
71627;DHT22;59475;52.464;13.590;2022-10-26T15:57:12;14.29;85.22
71627;DHT22;59475;52.464;13.590;2022-10-26T15:59:38;14.21;86.51
71627;DHT22;59475;52.464;13.590;2022-10-26T16:02:14;14.14;86.61
71627;DHT22;59475;52.464;13.590;2022-10-26T16:04:40;14.04;86.13
71627;DHT22;59475;52.464;13.590;2022-10-26T16:07:13;13.95;86.28
71627;DHT22;59475;52.464;13.590;2022-10-26T16:09:40;13.85;86.25
71627;DHT22;59475;52.464;13.590;2022-10-26T16:12:10;13.77;86.27
71627;DHT22;59475;52.464;13.590;2022-10-26T16:14:36;13.69;86.29
71627;DHT22;59475;52.464;13.590;2022-10-26T16:17:03;13.59;86.48
71627;DHT22;59475;52.464;13.590;2022-10-26T16:19:29;13.50;86.52
71627;DHT22;59475;52.464;13.590;2022-10-26T16:21:54;13.39;87.38
71627;DHT22;59475;52.464;13.590;2022-10-26T16:24:19;13.32;87.57
71627;DHT22;59475;52.464;13.590;2022-10-26T16:26:45;13.22;87.58
71627;DHT22;59475;52.464;13.590;2022-10-26T16:29:10;13.16;87.58
71627;DHT22;59475;52.464;13.590;2022-10-26T16:31:36;13.07;87.57
71627;DHT22;59475;52.464;13.590;2022-10-26T16:34:01;13.01;87.93
71627;DHT22;59475;52.464;13.590;2022-10-26T16:36:27;12.94;88.10
71627;DHT22;59475;52.464;13.590;2022-10-26T16:38:52;12.87;88.26
71627;DHT22;59475;52.464;13.590;2022-10-26T16:41:18;12.80;88.55
71627;DHT22;59475;52.464;13.590;2022-10-26T16:43:44;12.73;88.69
71627;DHT22;59475;52.464;13.590;2022-10-26T16:46:22;12.71;88.98
71627;DHT22;59475;52.464;13.590;2022-10-26T16:48:49;12.68;89.22
71627;DHT22;59475;52.464;13.590;2022-10-26T16:51:23;12.64;89.29
71627;DHT22;59475;52.464;13.590;2022-10-26T16:53:54;12.63;89.52
71627;DHT22;59475;52.464;13.590;2022-10-26T16:56:22;12.64;90.59
71627;DHT22;59475;52.464;13.590;2022-10-26T16:58:47;12.68;91.42
71627;DHT22;59475;52.464;13.590;2022-10-26T17:01:14;12.67;91.03
71627;DHT22;59475;52.464;13.590;2022-10-26T17:03:46;12.64;90.85
71627;DHT22;59475;52.464;13.590;2022-10-26T17:06:11;12.63;90.70
71627;DHT22;59475;52.464;13.590;2022-10-26T17:08:37;12.61;90.63
71627;DHT22;59475;52.464;13.590;2022-10-26T17:11:08;12.59;91.16
71627;DHT22;59475;52.464;13.590;2022-10-26T17:13:35;12.54;90.94
71627;DHT22;59475;52.464;13.590;2022-10-26T17:16:01;12.53;90.88
71627;DHT22;59475;52.464;13.590;2022-10-26T17:18:27;12.49;90.85
71627;DHT22;59475;52.464;13.590;2022-10-26T17:20:52;12.46;90.89
71627;DHT22;59475;52.464;13.590;2022-10-26T17:23:18;12.47;90.87
71627;DHT22;59475;52.464;13.590;2022-10-26T17:25:43;12.45;90.85